Time;durP1;ratioP1;P1;durP2;ratioP2;P2;SDS_P1;SDS_P2;PMS_P1;PMS_P2;Temp;Humidity;BMP_temperature;BMP_pressure;BME280_temperature;BME280_humidity;BME280_pressure;Samples;Min_cycle;Max_cycle;Signal;HPM_P1;HPM_P2
2024/01/01 00:02:52;;;;;;;3.95;2.25;;;;;;;7.52;85.92;98271.37;7132108;40;20244;31
2024/01/01 00:08:13;;;;;;;8.60;2.53;;;;;;;7.52;86.32;98273.19;7176184;40;20284;31
2024/01/01 00:13:49;;;;;;;6.83;2.30;;;;;;;7.53;85.61;98273.03;7220771;39;20255;31
2024/01/01 00:19:24;;;;;;;5.00;2.40;;;;;;;7.57;85.67;98273.53;7263149;39;20288;31
2024/01/01 00:30:02;;;;;;;7.70;2.70;;;;;;;7.60;86.00;98255.25;7258391;40;20417;31
2024/01/01 00:40:25;;;;;;;5.72;2.60;;;;;;;7.65;84.98;98249.38;7306143;39;21520;31
2024/01/01 00:46:00;;;;;;;5.40;2.30;;;;;;;7.63;85.09;98243.38;7338977;39;20249;31
2024/01/01 00:51:35;;;;;;;4.57;2.67;;;;;;;7.61;85.01;98248.06;7319614;39;21303;31
2024/01/01 01:02:10;;;;;;;7.03;2.07;;;;;;;7.70;85.19;98249.69;7302771;39;21338;31
2024/01/01 01:07:31;;;;;;;3.40;1.80;;;;;;;7.75;84.22;98247.34;7330655;39;20271;31
2024/01/01 01:18:11;;;;;;;6.60;1.85;;;;;;;7.81;83.23;98251.19;7277032;40;20277;31
2024/01/01 01:23:46;;;;;;;8.23;2.10;;;;;;;7.84;82.90;98261.56;7269855;39;20261;31
2024/01/01 01:29:07;;;;;;;4.60;1.80;;;;;;;7.91;82.79;98257.19;7308033;39;20316;31
2024/01/01 01:34:42;;;;;;;4.55;1.95;;;;;;;7.92;82.87;98262.38;7294102;39;20327;31
2024/01/01 01:40:17;;;;;;;8.60;2.10;;;;;;;7.95;82.12;98280.81;7208240;40;20348;31
2024/01/01 01:45:39;;;;;;;9.50;2.53;;;;;;;8.03;81.48;98286.13;7223165;40;20406;31
2024/01/01 01:51:15;;;;;;;10.57;2.40;;;;;;;8.01;81.93;98295.38;7258725;40;20241;31
2024/01/01 01:56:50;;;;;;;7.70;1.60;;;;;;;8.00;80.50;98270.41;7256012;40;20236;31
2024/01/01 02:02:26;;;;;;;3.10;1.65;;;;;;;7.97;80.67;98268.06;7198454;40;20246;31
2024/01/01 02:08:01;;;;;;;5.37;1.50;;;;;;;7.95;80.95;98274.59;7190872;40;20385;31
2024/01/01 02:13:38;;;;;;;4.63;1.60;;;;;;;7.94;80.76;98270.28;7218898;40;20265;31
2024/01/01 02:18:59;;;;;;;6.90;1.90;;;;;;;7.95;81.34;98272.75;7242726;40;20241;31
2024/01/01 02:24:36;;;;;;;7.33;1.73;;;;;;;7.94;81.10;98254.97;7287283;39;20453;31
2024/01/01 02:29:56;;;;;;;5.57;1.63;;;;;;;7.93;81.29;98290.88;7280774;40;20257;31
2024/01/01 02:35:14;;;;;;;4.10;1.40;;;;;;;7.97;81.04;98297.59;7326827;39;20251;31
2024/01/01 02:40:50;;;;;;;11.33;2.23;;;;;;;7.90;82.02;98282.34;7370542;39;20263;31
2024/01/01 02:46:10;;;;;;;7.23;1.90;;;;;;;7.90;82.27;98285.84;7294758;39;20272;31
2024/01/01 02:51:30;;;;;;;8.47;2.20;;;;;;;7.88;82.40;98282.53;7226809;40;20289;31
2024/01/01 02:57:07;;;;;;;6.20;2.43;;;;;;;7.83;82.65;98276.81;7239043;40;20237;31
2024/01/01 03:03:04;;;;;;;7.57;2.00;;;;;;;7.83;82.16;98305.50;7251674;39;20240;31
2024/01/01 03:08:39;;;;;;;7.80;2.10;;;;;;;7.85;82.53;98293.59;7274806;40;20276;31
2024/01/01 03:14:15;;;;;;;7.93;2.00;;;;;;;7.85;81.39;98301.66;7193560;40;20340;31
2024/01/01 03:19:35;;;;;;;10.05;2.10;;;;;;;7.86;81.73;98300.63;7186934;40;20258;31
2024/01/01 03:25:07;;;;;;;9.25;2.15;;;;;;;7.89;81.87;98308.34;7222636;40;20288;31
2024/01/01 03:30:43;;;;;;;5.97;1.83;;;;;;;7.87;81.51;98306.81;7252640;40;20398;31
2024/01/01 03:41:07;;;;;;;8.63;2.10;;;;;;;7.90;81.29;98301.94;7071677;39;20256;31
2024/01/01 03:51:45;;;;;;;9.30;2.05;;;;;;;7.88;80.24;98277.16;7290850;39;21254;31
2024/01/01 03:57:05;;;;;;;8.40;2.08;;;;;;;7.92;80.65;98277.63;7298387;39;20344;31
2024/01/01 04:02:26;;;;;;;17.30;2.60;;;;;;;7.90;80.10;98293.91;7277869;40;20237;31
2024/01/01 04:08:03;;;;;;;13.80;2.33;;;;;;;7.87;80.57;98315.72;7278089;40;20241;31
2024/01/01 04:13:38;;;;;;;6.63;1.83;;;;;;;7.88;80.52;98303.97;7234588;40;20274;31
2024/01/01 04:24:15;;;;;;;6.73;1.60;;;;;;;7.69;83.14;98296.28;7252335;40;21590;31
2024/01/01 04:29:50;;;;;;;7.33;2.23;;;;;;;7.66;83.48;98293.97;7242445;40;20279;31
2024/01/01 04:35:26;;;;;;;12.50;3.00;;;;;;;7.66;84.20;98307.38;7239428;40;20269;31
2024/01/01 04:41:03;;;;;;;8.30;2.20;;;;;;;7.63;83.49;98315.78;7239300;40;20235;31
2024/01/01 04:46:23;;;;;;;9.63;2.10;;;;;;;7.68;83.13;98318.75;7237863;40;20375;31
2024/01/01 04:51:56;;;;;;;11.03;2.27;;;;;;;7.73;82.57;98316.41;7257344;39;20265;31
2024/01/01 04:57:33;;;;;;;13.40;3.30;;;;;;;7.74;81.64;98331.50;7273288;39;20323;31
2024/01/01 05:02:55;;;;;;;10.50;2.50;;;;;;;7.75;81.38;98327.81;7275732;39;20269;31
2024/01/01 05:08:14;;;;;;;9.47;2.20;;;;;;;7.75;81.35;98343.06;7278947;40;20240;31
2024/01/01 05:13:50;;;;;;;8.95;2.25;;;;;;;7.75;80.49;98343.06;7254009;40;20252;31
2024/01/01 05:19:10;;;;;;;7.60;2.15;;;;;;;7.79;81.07;98337.19;7236846;40;20253;31
2024/01/01 05:24:31;;;;;;;6.55;1.95;;;;;;;7.79;80.84;98341.72;7227887;40;20371;31
2024/01/01 05:30:08;;;;;;;7.60;1.70;;;;;;;7.75;80.83;98338.53;7253158;40;20395;31
2024/01/01 05:35:28;;;;;;;7.47;2.00;;;;;;;7.76;79.96;98342.91;7255193;40;20260;31
2024/01/01 05:40:49;;;;;;;7.83;2.20;;;;;;;7.78;79.97;98354.28;7227276;40;21349;31
2024/01/01 05:46:25;;;;;;;9.80;2.30;;;;;;;7.76;80.31;98348.28;7239360;40;20257;31
2024/01/01 05:52:00;;;;;;;9.20;2.00;;;;;;;7.77;80.30;98363.34;7259811;39;20259;31
2024/01/01 05:57:34;;;;;;;10.03;2.10;;;;;;;7.78;80.43;98358.81;7318280;39;20252;31
2024/01/01 06:03:11;;;;;;;5.87;1.80;;;;;;;7.77;79.55;98357.97;7308762;39;20349;31
2024/01/01 06:08:46;;;;;;;11.80;2.45;;;;;;;7.78;79.03;98375.75;7309510;39;20261;31
2024/01/01 06:14:18;;;;;;;9.35;2.40;;;;;;;7.81;78.97;98374.59;7207100;40;20408;31
2024/01/01 06:19:56;;;;;;;9.53;2.53;;;;;;;7.81;79.04;98385.31;7197674;40;20365;31
2024/01/01 06:25:29;;;;;;;11.20;2.40;;;;;;;7.80;78.70;98387.16;7215981;40;20363;31
2024/01/01 06:30:49;;;;;;;10.25;2.00;;;;;;;7.82;78.66;98387.81;7209681;40;20263;31
2024/01/01 06:36:26;;;;;;;6.83;2.20;;;;;;;7.79;77.94;98390.00;7270002;39;20390;31
2024/01/01 06:42:02;;;;;;;9.00;1.63;;;;;;;7.85;78.31;98419.69;7268932;39;20281;31
2024/01/01 06:47:23;;;;;;;9.20;2.27;;;;;;;7.81;79.63;98426.38;7233772;40;20249;31
2024/01/01 06:52:58;;;;;;;25.53;2.43;;;;;;;7.69;79.50;98415.16;7265293;39;20275;31
2024/01/01 07:03:20;;;;;;;10.70;2.10;;;;;;;7.72;79.80;98418.50;7298607;40;21259;31
2024/01/01 07:08:55;;;;;;;5.45;2.20;;;;;;;7.66;80.00;98428.91;7295310;40;20276;31
2024/01/01 07:14:31;;;;;;;7.70;2.45;;;;;;;7.64;79.63;98435.41;7258712;40;20237;31
2024/01/01 07:20:06;;;;;;;9.57;2.87;;;;;;;7.61;80.16;98454.53;7237253;40;20371;31
2024/01/01 07:25:42;;;;;;;7.67;1.83;;;;;;;7.45;81.06;98463.41;7218254;40;20270;31
2024/01/01 07:31:17;;;;;;;5.70;1.70;;;;;;;7.36;81.08;98472.44;7217294;40;20262;31
2024/01/01 07:36:39;;;;;;;7.15;2.15;;;;;;;7.38;82.61;98474.94;7197564;40;20261;31
2024/01/01 07:42:15;;;;;;;4.95;2.00;;;;;;;7.37;81.29;98481.31;7198353;40;20442;31
2024/01/01 07:47:50;;;;;;;9.65;2.20;;;;;;;7.43;82.17;98475.28;7188566;40;20246;31
2024/01/01 07:53:22;;;;;;;10.23;2.60;;;;;;;7.44;81.96;98493.06;7226051;40;20260;31
2024/01/01 07:58:59;;;;;;;12.85;6.00;;;;;;;7.48;80.79;98494.41;7200223;40;20246;31
2024/01/01 08:04:20;;;;;;;11.33;2.93;;;;;;;7.58;80.42;98485.22;7236463;40;20261;31
2024/01/01 08:09:40;;;;;;;8.33;2.40;;;;;;;7.56;80.47;98497.94;7250859;40;20473;31
2024/01/01 08:15:15;;;;;;;7.30;2.10;;;;;;;7.46;81.44;98489.19;7249540;40;20416;31
2024/01/01 08:20:37;;;;;;;9.80;3.45;;;;;;;7.53;81.60;98509.00;7286645;40;20302;31
2024/01/01 08:25:57;;;;;;;11.90;4.25;;;;;;;7.53;81.84;98492.06;7306507;39;20370;31
2024/01/01 08:31:32;;;;;;;8.15;2.85;;;;;;;7.63;80.44;98506.97;7319335;39;20385;31
2024/01/01 08:37:08;;;;;;;13.63;2.67;;;;;;;7.77;79.25;98528.84;7276231;40;20264;31
2024/01/01 08:42:26;;;;;;;5.65;2.00;;;;;;;7.84;78.83;98509.22;7283770;39;20248;31
2024/01/01 08:48:03;;;;;;;8.10;1.97;;;;;;;7.84;78.05;98511.06;7309208;39;20259;31
2024/01/01 08:53:38;;;;;;;13.77;2.30;;;;;;;7.87;78.57;98516.91;7250433;39;20242;31
2024/01/01 08:58:59;;;;;;;10.80;2.20;;;;;;;7.87;78.27;98519.59;7239498;40;20256;31
2024/01/01 09:04:36;;;;;;;7.95;1.90;;;;;;;7.86;78.63;98509.88;7256786;40;20405;31
2024/01/01 09:10:11;;;;;;;8.53;1.70;;;;;;;7.90;77.03;98516.59;7209357;40;20250;31
2024/01/01 09:15:33;;;;;;;7.63;2.00;;;;;;;7.96;77.33;98525.81;7238238;40;20272;31
2024/01/01 09:21:10;;;;;;;8.00;2.35;;;;;;;7.97;77.49;98549.81;7224034;40;20265;31
2024/01/01 09:31:51;;;;;;;7.85;2.00;;;;;;;7.89;78.40;98567.75;7337520;39;20507;31
2024/01/01 09:37:28;;;;;;;6.73;2.13;;;;;;;7.79;80.36;98573.25;7252477;40;20327;31
2024/01/01 09:43:03;;;;;;;6.95;2.00;;;;;;;7.77;81.54;98590.53;7287990;40;20248;31
2024/01/01 09:48:38;;;;;;;7.77;2.10;;;;;;;7.66;82.45;98583.63;7218596;40;20247;31
2024/01/01 09:54:17;;;;;;;8.10;2.33;;;;;;;7.66;83.22;98588.97;7260561;40;20242;31
2024/01/01 09:59:53;;;;;;;7.90;2.50;;;;;;;7.68;84.34;98587.78;7198140;40;20243;31
2024/01/01 10:05:29;;;;;;;9.70;2.40;;;;;;;7.75;84.04;98579.94;7214777;40;20403;31
2024/01/01 10:11:07;;;;;;;8.50;2.40;;;;;;;7.87;84.12;98585.84;7233574;40;20230;31
2024/01/01 10:16:43;;;;;;;8.00;1.97;;;;;;;7.93;83.91;98563.72;7248169;40;20408;31
2024/01/01 10:22:26;;;;;;;9.20;2.40;;;;;;;8.00;82.97;98575.47;7233660;40;20343;31
2024/01/01 10:28:00;;;;;;;13.82;3.87;;;;;;;8.04;82.85;98569.59;7056768;40;21211;31
2024/01/01 10:33:36;;;;;;;9.33;2.87;;;;;;;8.18;81.89;98561.88;7215968;40;20246;31
2024/01/01 10:39:12;;;;;;;10.25;2.50;;;;;;;8.22;81.71;98555.19;7205217;40;20253;31
2024/01/01 10:44:49;;;;;;;8.90;2.10;;;;;;;8.23;81.37;98559.56;7270724;39;20245;31
2024/01/01 10:50:26;;;;;;;7.87;2.63;;;;;;;8.24;80.97;98572.81;7227889;40;20250;31
2024/01/01 10:56:04;;;;;;;8.60;2.40;;;;;;;8.27;80.79;98575.16;7245254;40;20277;31
2024/01/01 11:01:41;;;;;;;8.55;2.50;;;;;;;8.32;79.57;98564.78;7246820;40;20257;31
2024/01/01 11:07:16;;;;;;;10.53;2.80;;;;;;;8.42;79.77;98561.94;7176894;40;20354;31
2024/01/01 11:12:37;;;;;;;11.33;2.23;;;;;;;8.56;78.96;98571.97;7197556;40;20252;31
2024/01/01 11:18:13;;;;;;;7.73;2.10;;;;;;;8.60;78.23;98563.41;7215201;40;20246;31
2024/01/01 11:23:56;;;;;;;7.65;1.70;;;;;;;8.69;78.10;98566.91;7226380;40;20304;31
2024/01/01 11:29:41;;;;;;;8.23;2.40;;;;;;;8.72;77.79;98555.00;7238144;39;20260;31
2024/01/01 11:35:21;;;;;;;6.40;2.50;;;;;;;8.85;77.65;98552.63;7258057;39;20383;31
2024/01/01 11:40:41;;;;;;;10.20;2.50;;;;;;;8.81;77.31;98560.22;7251314;39;20303;31
2024/01/01 11:46:02;;;;;;;8.80;2.40;;;;;;;8.93;77.23;98568.75;7215845;40;20227;31
2024/01/01 11:51:37;;;;;;;9.13;2.63;;;;;;;8.92;76.43;98559.00;7200406;40;20232;31
2024/01/01 11:57:12;;;;;;;11.77;2.43;;;;;;;9.01;76.57;98566.03;7209457;40;20274;31
2024/01/01 12:02:47;;;;;;;6.80;2.50;;;;;;;9.12;75.44;98576.44;7196678;40;20261;31
2024/01/01 12:08:31;;;;;;;10.65;2.85;;;;;;;9.04;75.52;98581.78;7209044;40;20228;31
2024/01/01 12:14:07;;;;;;;8.20;2.60;;;;;;;9.01;75.32;98576.78;7178156;40;20385;31
2024/01/01 12:19:29;;;;;;;13.70;2.65;;;;;;;9.02;74.66;98591.91;7128998;40;20251;31
2024/01/01 12:25:12;;;;;;;6.15;2.25;;;;;;;8.97;74.29;98591.56;7200841;40;20396;31
2024/01/01 12:30:47;;;;;;;8.80;2.77;;;;;;;8.97;73.97;98583.50;7207546;40;20390;31
2024/01/01 12:36:08;;;;;;;11.30;2.63;;;;;;;9.04;73.95;98595.25;7187104;40;20243;31
2024/01/01 12:41:44;;;;;;;10.50;2.83;;;;;;;9.04;73.59;98598.78;7197665;40;20352;31
2024/01/01 12:47:20;;;;;;;6.27;2.10;;;;;;;8.99;72.98;98600.31;7198140;40;20254;31
2024/01/01 12:52:55;;;;;;;10.65;2.65;;;;;;;8.97;73.12;98592.41;7224057;40;20249;31
2024/01/01 12:58:32;;;;;;;7.45;3.00;;;;;;;8.97;73.07;98580.81;7237242;40;20391;31
2024/01/01 13:04:08;;;;;;;11.27;3.43;;;;;;;8.96;72.96;98579.97;7235986;40;20242;31
2024/01/01 13:09:43;;;;;;;10.37;2.57;;;;;;;9.01;72.95;98592.91;7277646;40;20276;31
2024/01/01 13:15:21;;;;;;;12.63;3.20;;;;;;;8.94;73.00;98591.91;7213689;40;20311;31
2024/01/01 13:20:43;;;;;;;10.40;2.50;;;;;;;8.93;72.94;98590.25;7191859;40;20311;31
2024/01/01 13:26:17;;;;;;;10.65;2.40;;;;;;;8.89;73.05;98578.16;7216095;39;20397;31
2024/01/01 13:31:53;;;;;;;13.03;2.90;;;;;;;8.90;72.48;98577.16;7198022;40;20297;31
2024/01/01 13:42:33;;;;;;;10.27;2.50;;;;;;;8.93;71.93;98572.28;7217824;40;20273;31
2024/01/01 13:48:12;;;;;;;8.10;2.10;;;;;;;8.94;71.49;98582.00;7238863;40;20241;31
2024/01/01 13:53:30;;;;;;;8.50;2.10;;;;;;;8.95;72.15;98589.03;7250115;40;20307;31
2024/01/01 13:58:51;;;;;;;11.67;3.83;;;;;;;8.94;71.20;98590.06;7285561;39;20244;31
2024/01/01 14:04:26;;;;;;;7.23;2.60;;;;;;;8.89;71.06;98584.37;7302468;39;20260;31
2024/01/01 14:10:01;;;;;;;10.87;3.33;;;;;;;8.89;71.51;98589.75;7278681;39;20241;31
2024/01/01 14:15:38;;;;;;;12.40;5.10;;;;;;;8.89;70.80;98596.97;7239541;40;20254;31
2024/01/01 14:21:13;;;;;;;11.57;2.90;;;;;;;8.91;71.79;98617.28;7306622;39;20241;31
2024/01/01 14:26:47;;;;;;;8.50;2.10;;;;;;;8.89;71.12;98618.47;7268964;39;20259;31
2024/01/01 14:32:08;;;;;;;10.10;2.50;;;;;;;8.88;70.80;98616.78;7205052;40;20241;31
2024/01/01 14:37:40;;;;;;;10.40;2.60;;;;;;;8.84;71.18;98640.47;7162135;40;20443;31
2024/01/01 14:43:03;;;;;;;7.00;2.23;;;;;;;8.87;71.73;98645.50;7212689;40;20265;31
2024/01/01 14:48:35;;;;;;;7.70;2.70;;;;;;;8.83;71.30;98646.00;7241886;40;20416;31
2024/01/01 14:54:11;;;;;;;8.57;2.70;;;;;;;8.79;71.88;98650.88;7258665;40;20290;31
2024/01/01 14:59:46;;;;;;;7.50;2.27;;;;;;;8.79;72.12;98639.28;7258995;40;20311;31
2024/01/01 15:05:21;;;;;;;9.60;2.53;;;;;;;8.77;71.89;98647.53;7248306;40;20260;31
2024/01/01 15:10:58;;;;;;;6.10;1.93;;;;;;;8.77;71.55;98649.38;7271000;40;20240;31
2024/01/01 15:16:19;;;;;;;9.53;2.97;;;;;;;8.73;71.55;98656.91;7251612;40;20241;31
2024/01/01 15:21:42;;;;;;;12.27;3.87;;;;;;;8.76;72.22;98670.03;7236281;40;20261;31
2024/01/01 15:27:16;;;;;;;10.30;2.70;;;;;;;8.69;72.20;98662.81;7245650;40;20256;31
2024/01/01 15:32:51;;;;;;;11.80;2.70;;;;;;;8.67;72.08;98671.03;7265167;40;20424;31
2024/01/01 15:38:12;;;;;;;9.80;2.30;;;;;;;8.69;72.59;98670.88;7235579;40;20258;31
2024/01/01 15:43:47;;;;;;;8.25;2.80;;;;;;;8.63;72.83;98675.06;7218517;39;20245;31
2024/01/01 15:49:23;;;;;;;9.40;2.70;;;;;;;8.62;72.97;98683.28;7227414;40;20485;31
2024/01/01 15:54:43;;;;;;;12.32;2.97;;;;;;;8.64;73.51;98692.88;7219024;40;21495;31
2024/01/01 16:00:21;;;;;;;13.55;3.45;;;;;;;8.58;74.26;98688.16;7256488;40;20357;31
2024/01/01 16:05:41;;;;;;;11.80;3.77;;;;;;;8.60;74.06;98696.88;7209693;40;20448;31
2024/01/01 16:11:20;;;;;;;14.60;3.80;;;;;;;8.61;74.29;98709.31;7264087;39;20245;31
2024/01/01 16:16:54;;;;;;;12.70;3.20;;;;;;;8.56;74.93;98709.81;7319910;39;20245;31
2024/01/01 16:22:14;;;;;;;8.50;2.83;;;;;;;8.59;74.49;98705.97;7268551;40;20246;31
2024/01/01 16:27:34;;;;;;;8.40;2.75;;;;;;;8.58;75.16;98710.50;7296821;40;20223;31
2024/01/01 16:33:10;;;;;;;10.67;2.93;;;;;;;8.51;75.39;98709.47;7285433;39;20244;31
2024/01/01 16:38:42;;;;;;;10.73;3.50;;;;;;;8.46;75.76;98709.12;7122176;39;20236;31
2024/01/01 16:44:06;;;;;;;16.20;7.80;;;;;;;8.44;76.05;98715.66;7238708;40;20315;31
2024/01/01 16:49:40;;;;;;;21.73;10.00;;;;;;;8.37;76.68;98712.81;7223817;40;20251;31
2024/01/01 17:00:05;;;;;;;9.65;3.45;;;;;;;8.38;77.34;98724.41;7230974;40;20832;31
2024/01/01 17:05:41;;;;;;;68.80;42.10;;;;;;;8.31;76.76;98740.31;7248993;40;20373;31
2024/01/01 17:11:16;;;;;;;34.50;17.97;;;;;;;8.32;77.04;98733.09;7218413;40;20242;31
2024/01/01 17:16:53;;;;;;;14.60;9.50;;;;;;;8.32;76.69;98733.09;7278457;39;20283;31
2024/01/01 17:22:30;;;;;;;10.13;3.73;;;;;;;8.29;77.16;98736.97;7287944;40;20231;31
2024/01/01 17:28:05;;;;;;;8.30;2.70;;;;;;;8.26;76.51;98736.37;7260510;39;20261;31
2024/01/01 17:33:25;;;;;;;10.13;3.10;;;;;;;8.27;77.14;98738.91;7247951;40;20304;31
2024/01/01 17:39:03;;;;;;;14.45;3.80;;;;;;;8.21;76.85;98738.72;7266391;40;20376;31
2024/01/01 17:44:37;;;;;;;9.77;3.00;;;;;;;8.21;76.27;98742.25;7209245;40;20265;31
2024/01/01 17:49:57;;;;;;;6.83;2.60;;;;;;;8.20;76.50;98737.06;7247186;40;20261;31
2024/01/01 17:55:34;;;;;;;9.10;2.87;;;;;;;8.16;76.65;98742.72;7224120;40;20355;31
2024/01/01 18:01:09;;;;;;;11.00;3.00;;;;;;;8.17;76.90;98738.22;7187373;40;20313;31
2024/01/01 18:06:44;;;;;;;6.20;2.40;;;;;;;8.18;77.17;98749.78;7263141;39;20260;31
2024/01/01 18:12:18;;;;;;;9.73;2.50;;;;;;;8.12;77.16;98741.38;7265289;40;20253;31
2024/01/01 18:17:53;;;;;;;9.75;2.85;;;;;;;8.16;76.86;98740.03;7245517;39;20473;31
2024/01/01 18:23:13;;;;;;;10.23;2.80;;;;;;;8.15;76.73;98738.38;7239152;40;20249;31
2024/01/01 18:28:49;;;;;;;8.80;2.75;;;;;;;8.15;76.49;98735.72;7214510;40;20327;31
2024/01/01 18:34:10;;;;;;;13.70;3.20;;;;;;;8.16;77.07;98732.00;7180192;40;20338;31
2024/01/01 18:39:45;;;;;;;8.13;2.80;;;;;;;8.12;77.04;98725.28;7165855;40;20242;31
2024/01/01 18:45:23;;;;;;;7.95;3.00;;;;;;;8.14;76.60;98725.97;7217631;40;20241;31
2024/01/01 18:50:58;;;;;;;8.43;3.37;;;;;;;8.18;76.44;98726.47;7223479;40;20327;31
2024/01/01 18:56:33;;;;;;;13.90;4.60;;;;;;;8.14;76.79;98730.50;7196360;40;20289;31
2024/01/01 19:02:11;;;;;;;11.53;3.90;;;;;;;8.10;76.66;98731.81;7248671;40;20286;31
2024/01/01 19:07:50;;;;;;;11.20;3.83;;;;;;;8.07;76.35;98727.59;7228616;40;20241;31
2024/01/01 19:13:22;;;;;;;12.10;4.10;;;;;;;8.08;76.22;98733.81;7265088;40;20261;31
2024/01/01 19:18:58;;;;;;;14.63;5.33;;;;;;;8.00;76.01;98729.25;7247767;40;20222;31
2024/01/01 19:24:34;;;;;;;10.30;3.20;;;;;;;8.02;76.45;98735.31;7174510;40;20357;31
2024/01/01 19:30:10;;;;;;;10.80;3.20;;;;;;;7.96;76.14;98719.84;7156793;40;20259;31
2024/01/01 19:35:47;;;;;;;35.20;17.77;;;;;;;7.91;76.32;98708.75;7210579;40;20241;31
2024/01/01 19:41:22;;;;;;;9.70;4.90;;;;;;;7.90;76.54;98700.91;7215449;40;20287;31
2024/01/01 19:46:58;;;;;;;9.00;3.20;;;;;;;7.86;76.62;98696.81;7195555;40;20270;31
2024/01/01 19:52:36;;;;;;;9.20;3.50;;;;;;;7.83;76.32;98692.63;7169027;40;20319;31
2024/01/01 19:58:12;;;;;;;8.77;3.47;;;;;;;7.83;76.09;98702.53;7191204;40;20316;31
2024/01/01 20:03:32;;;;;;;9.83;3.30;;;;;;;7.82;76.23;98690.94;7197948;40;20285;31
2024/01/01 20:09:09;;;;;;;8.03;3.10;;;;;;;7.78;75.59;98689.59;7172296;40;20261;31
2024/01/01 20:14:29;;;;;;;13.37;5.80;;;;;;;7.78;76.78;98678.03;7236628;39;20268;31
2024/01/01 20:19:49;;;;;;;18.70;8.30;;;;;;;7.75;76.98;98676.53;7255424;40;20287;31
2024/01/01 20:25:25;;;;;;;34.13;19.77;;;;;;;7.67;76.61;98668.44;7286584;39;20241;31
2024/01/01 20:31:01;;;;;;;8.03;4.90;;;;;;;7.65;77.01;98667.75;7295769;39;20241;31
2024/01/01 20:36:38;;;;;;;11.30;3.55;;;;;;;7.63;77.78;98643.75;7284851;40;20241;31
2024/01/01 20:42:13;;;;;;;7.30;3.67;;;;;;;7.60;77.44;98640.56;7257695;40;20233;31
2024/01/01 20:47:49;;;;;;;7.97;4.40;;;;;;;7.57;77.74;98635.53;7288394;39;21335;31
2024/01/01 20:53:11;;;;;;;6.93;4.10;;;;;;;7.60;77.81;98627.16;7276190;40;20260;31
2024/01/01 20:58:49;;;;;;;5.30;2.10;;;;;;;7.58;78.81;98613.94;7309413;39;20448;31
2024/01/01 21:04:23;;;;;;;5.53;2.70;;;;;;;7.57;77.93;98600.69;7211197;40;20472;31
2024/01/01 21:09:45;;;;;;;8.45;2.70;;;;;;;7.61;78.03;98599.34;7215689;40;20264;31
2024/01/01 21:15:21;;;;;;;6.05;2.67;;;;;;;7.55;78.17;98583.91;7209703;40;21293;31
2024/01/01 21:20:42;;;;;;;7.30;2.45;;;;;;;7.57;78.28;98598.00;7273210;39;20409;31
2024/01/01 21:31:22;;;;;;;56.50;31.83;;;;;;;7.57;78.98;98585.44;7309002;39;20289;31
2024/01/01 21:36:44;;;;;;;20.80;10.45;;;;;;;7.61;79.26;98588.63;7236585;40;20320;31
2024/01/01 21:42:05;;;;;;;11.17;4.30;;;;;;;7.66;79.22;98575.56;7328711;39;20401;31
2024/01/01 21:47:38;;;;;;;8.30;2.90;;;;;;;7.63;79.63;98570.53;7297671;40;20241;31
2024/01/01 21:53:13;;;;;;;6.65;2.25;;;;;;;7.65;79.13;98563.16;7289234;39;20391;31
2024/01/01 21:58:34;;;;;;;5.77;2.47;;;;;;;7.65;79.78;98563.16;7249770;40;20616;31
2024/01/01 22:04:12;;;;;;;10.60;2.50;;;;;;;7.64;79.17;98564.16;7269700;40;20300;31
2024/01/01 22:09:31;;;;;;;7.90;2.60;;;;;;;7.67;79.61;98564.69;7296499;39;20540;31
2024/01/01 22:15:04;;;;;;;4.83;2.53;;;;;;;7.68;79.60;98566.34;7288718;40;20232;31
2024/01/01 22:20:37;;;;;;;7.30;2.50;;;;;;;7.68;79.08;98552.94;7263832;40;20249;31
2024/01/01 22:25:57;;;;;;;5.45;2.25;;;;;;;7.77;79.88;98561.03;7262207;40;20346;31
2024/01/01 22:31:18;;;;;;;8.67;2.20;;;;;;;7.77;79.69;98547.59;7250343;39;20259;31
2024/01/01 22:36:55;;;;;;;8.73;2.50;;;;;;;7.71;80.21;98549.09;7257008;40;20241;31
2024/01/01 22:42:15;;;;;;;3.83;1.90;;;;;;;7.75;80.33;98542.41;7264201;40;20269;31
2024/01/01 22:52:52;;;;;;;6.13;2.20;;;;;;;7.66;80.11;98522.78;7297067;39;20835;31
2024/01/01 22:58:27;;;;;;;5.00;2.30;;;;;;;7.65;80.90;98517.56;7254319;40;20340;31
2024/01/01 23:03:47;;;;;;;5.20;2.50;;;;;;;7.65;80.78;98512.19;7277205;40;20312;31
2024/01/01 23:09:24;;;;;;;5.77;2.30;;;;;;;7.60;81.12;98503.81;7257899;40;20375;31
2024/01/01 23:14:56;;;;;;;5.97;2.00;;;;;;;7.66;81.54;98503.16;7022484;40;20254;31
2024/01/01 23:20:31;;;;;;;8.15;2.60;;;;;;;7.60;81.13;98487.72;7168752;40;20266;31
2024/01/01 23:26:07;;;;;;;8.55;1.90;;;;;;;7.60;81.33;98479.66;7107661;41;20328;31
2024/01/01 23:31:42;;;;;;;4.33;1.87;;;;;;;7.63;80.87;98465.94;7148112;40;20247;31
2024/01/01 23:37:18;;;;;;;4.70;1.77;;;;;;;7.63;81.56;98472.12;7148709;40;20308;31
2024/01/01 23:42:50;;;;;;;3.90;1.90;;;;;;;7.63;81.25;98465.94;7177410;40;20261;31
2024/01/01 23:53:13;;;;;;;5.50;2.10;;;;;;;7.63;82.52;98429.22;7244255;40;20284;31
